Time;durP1;ratioP1;P1;durP2;ratioP2;P2;SDS_P1;SDS_P2;PMS_P1;PMS_P2;Temp;Humidity;BMP_temperature;BMP_pressure;BME280_temperature;BME280_humidity;BME280_pressure;Samples;Min_cycle;Max_cycle;Signal;HPM_P1;HPM_P2
2021/12/26 00:01:07;;;;;;;1.00;0.80;;;;;;;;;;4482275;28;20129;-57
2021/12/26 00:03:18;;;;;;;1.20;0.90;;;;;;;;;;4483197;28;20085;-57
2021/12/26 00:05:28;;;;;;;1.07;0.83;;;;;;;;;;4468198;28;20039;-57
2021/12/26 00:07:39;;;;;;;1.20;0.90;;;;;;;;;;4468421;28;20245;-58
2021/12/26 00:09:50;;;;;;;1.27;0.73;;;;;;;;;;4449983;28;20047;-58
2021/12/26 00:12:00;;;;;;;0.87;0.80;;;;;;;;;;4482817;28;20280;-58
2021/12/26 00:14:11;;;;;;;1.40;0.90;;;;;;;;;;4469554;28;20035;-58
2021/12/26 00:16:22;;;;;;;1.47;1.00;;;;;;;;;;4471039;28;20054;-57
2021/12/26 00:18:33;;;;;;;1.95;1.10;;;;;;;;;;4471208;28;21104;-58
2021/12/26 00:20:45;;;;;;;1.10;0.82;;;;;;;;;;4456325;28;20046;-58
2021/12/26 00:22:56;;;;;;;1.23;1.00;;;;;;;;;;4470051;28;20042;-58
2021/12/26 00:25:07;;;;;;;1.13;0.82;;;;;;;;;;4470591;28;20035;-58
2021/12/26 00:27:19;;;;;;;1.20;0.90;;;;;;;;;;4470559;28;20117;-58
2021/12/26 00:29:29;;;;;;;1.48;1.00;;;;;;;;;;4485135;28;20656;-58
2021/12/26 00:31:40;;;;;;;1.20;0.80;;;;;;;;;;4452501;28;20106;-57
2021/12/26 00:33:50;;;;;;;1.10;0.90;;;;;;;;;;4485088;28;20087;-58
2021/12/26 00:36:02;;;;;;;1.03;0.70;;;;;;;;;;4438642;28;20047;-58
2021/12/26 00:38:13;;;;;;;1.63;1.15;;;;;;;;;;4470515;28;20038;-58
2021/12/26 00:40:26;;;;;;;1.40;0.90;;;;;;;;;;4469207;28;20054;-58
2021/12/26 00:42:37;;;;;;;1.02;0.90;;;;;;;;;;4452410;28;20055;-58
2021/12/26 00:44:47;;;;;;;1.53;1.10;;;;;;;;;;4485320;28;20530;-58
2021/12/26 00:46:58;;;;;;;1.33;1.03;;;;;;;;;;4468707;28;20043;-58
2021/12/26 00:49:08;;;;;;;1.63;1.03;;;;;;;;;;4470262;28;20071;-58
2021/12/26 00:51:18;;;;;;;1.17;0.80;;;;;;;;;;4452584;28;20054;-58
2021/12/26 00:53:29;;;;;;;0.80;0.80;;;;;;;;;;4483579;28;20052;-58
2021/12/26 00:55:40;;;;;;;1.00;0.90;;;;;;;;;;4469913;28;20379;-57
2021/12/26 00:57:51;;;;;;;1.48;0.90;;;;;;;;;;4485341;28;20031;-57
2021/12/26 01:00:05;;;;;;;0.70;0.60;;;;;;;;;;4470783;28;20578;-58
2021/12/26 01:02:15;;;;;;;1.25;0.90;;;;;;;;;;4436662;28;20094;-57
2021/12/26 01:04:26;;;;;;;1.03;0.80;;;;;;;;;;4452481;28;20538;-57
2021/12/26 01:06:36;;;;;;;1.33;0.97;;;;;;;;;;4453134;28;20023;-57
2021/12/26 01:08:50;;;;;;;0.80;0.80;;;;;;;;;;4452682;28;20046;-57
2021/12/26 01:11:17;;;;;;;1.02;0.90;;;;;;;;;;4470681;28;20035;-58
2021/12/26 01:13:32;;;;;;;1.00;0.75;;;;;;;;;;4485206;28;20042;-57
2021/12/26 01:16:13;;;;;;;1.08;0.77;;;;;;;;;;4456499;28;20117;-57
2021/12/26 01:18:26;;;;;;;0.80;0.80;;;;;;;;;;4485414;28;20073;-58
2021/12/26 01:22:49;;;;;;;0.82;0.82;;;;;;;;;;4452616;28;20591;-58
2021/12/26 01:25:00;;;;;;;1.10;0.90;;;;;;;;;;4451739;28;20036;-58
2021/12/26 01:27:11;;;;;;;0.97;0.70;;;;;;;;;;4450914;28;20047;-58
2021/12/26 01:29:22;;;;;;;1.70;1.10;;;;;;;;;;4453144;28;21055;-57
2021/12/26 01:31:32;;;;;;;0.80;0.80;;;;;;;;;;4452883;28;20357;-57
2021/12/26 01:33:59;;;;;;;1.15;0.75;;;;;;;;;;4452302;28;20156;-57
2021/12/26 01:36:29;;;;;;;1.20;0.90;;;;;;;;;;4451891;28;20047;-57
2021/12/26 01:38:58;;;;;;;1.58;0.98;;;;;;;;;;4465728;28;20201;-57
2021/12/26 01:41:18;;;;;;;1.27;1.00;;;;;;;;;;4466037;28;20186;-57
2021/12/26 01:43:49;;;;;;;0.93;0.77;;;;;;;;;;4467676;28;20030;-57
2021/12/26 01:46:19;;;;;;;1.35;1.00;;;;;;;;;;4481383;28;20039;-58
2021/12/26 01:48:30;;;;;;;0.73;0.73;;;;;;;;;;4467952;28;20035;-58
2021/12/26 01:50:42;;;;;;;1.53;1.00;;;;;;;;;;4452013;28;20043;-57
2021/12/26 01:52:53;;;;;;;1.30;1.00;;;;;;;;;;4469235;28;20031;-58
2021/12/26 01:57:38;;;;;;;0.82;0.82;;;;;;;;;;4455303;28;20047;-58
2021/12/26 01:59:49;;;;;;;1.53;0.90;;;;;;;;;;4451514;28;20032;-58
2021/12/26 02:02:08;;;;;;;1.42;0.88;;;;;;;;;;4470771;28;20122;-58
2021/12/26 02:04:18;;;;;;;0.70;0.70;;;;;;;;;;4484597;28;20130;-58
2021/12/26 02:06:29;;;;;;;1.77;0.80;;;;;;;;;;4451587;28;20046;-58
2021/12/26 02:08:40;;;;;;;;;;;;;;;;;;4467292;28;20527;-58
2021/12/26 02:10:52;;;;;;;1.30;0.90;;;;;;;;;;4451310;28;19922;-58
2021/12/26 02:13:03;;;;;;;0.90;0.80;;;;;;;;;;4451909;28;20693;-58
2021/12/26 02:15:13;;;;;;;1.40;0.98;;;;;;;;;;4438739;28;20047;-58
2021/12/26 02:17:28;;;;;;;1.88;1.02;;;;;;;;;;4483611;28;20174;-57
2021/12/26 02:19:41;;;;;;;1.40;0.95;;;;;;;;;;4451318;28;20592;-58
2021/12/26 02:25:06;;;;;;;1.63;0.82;;;;;;;;;;4475269;28;20054;-58
2021/12/26 02:29:35;;;;;;;1.13;0.90;;;;;;;;;;4483302;28;20070;-58
2021/12/26 02:31:47;;;;;;;1.17;0.82;;;;;;;;;;4452349;28;20567;-57
2021/12/26 02:33:57;;;;;;;1.00;0.80;;;;;;;;;;4451560;28;20035;-57
2021/12/26 02:36:08;;;;;;;1.07;0.83;;;;;;;;;;4483292;28;20035;-58
2021/12/26 02:38:19;;;;;;;1.07;0.80;;;;;;;;;;4483421;28;20541;-58
2021/12/26 02:40:29;;;;;;;1.35;1.00;;;;;;;;;;4450982;28;20595;-58
2021/12/26 02:42:41;;;;;;;1.10;1.00;;;;;;;;;;4483991;28;20445;-58
2021/12/26 02:44:51;;;;;;;1.00;0.80;;;;;;;;;;4469174;28;20472;-58
2021/12/26 02:47:02;;;;;;;1.30;1.10;;;;;;;;;;4451372;28;20039;-58
2021/12/26 02:49:13;;;;;;;1.17;1.00;;;;;;;;;;4455067;28;20035;-57
2021/12/26 02:51:25;;;;;;;1.10;1.00;;;;;;;;;;4451147;28;20168;-57
2021/12/26 02:53:35;;;;;;;1.23;1.00;;;;;;;;;;4436439;28;20141;-57
2021/12/26 02:55:50;;;;;;;1.40;0.80;;;;;;;;;;4451360;28;20833;-57
2021/12/26 02:58:04;;;;;;;1.45;0.70;;;;;;;;;;4450902;28;20042;-57
2021/12/26 03:00:20;;;;;;;1.10;0.80;;;;;;;;;;4460620;28;20200;-57
2021/12/26 03:02:30;;;;;;;0.95;0.82;;;;;;;;;;4450086;28;20130;-57
2021/12/26 03:04:41;;;;;;;1.90;1.00;;;;;;;;;;4451377;28;20560;-57
2021/12/26 03:07:02;;;;;;;1.50;0.80;;;;;;;;;;4450652;28;20035;-57
2021/12/26 03:09:12;;;;;;;1.27;1.10;;;;;;;;;;4468832;28;20130;-57
2021/12/26 03:11:24;;;;;;;1.13;0.93;;;;;;;;;;4469970;28;20557;-58
2021/12/26 03:13:35;;;;;;;0.77;0.63;;;;;;;;;;4484611;28;20069;-57
2021/12/26 03:15:45;;;;;;;0.87;0.70;;;;;;;;;;4450223;28;20585;-58
2021/12/26 03:17:57;;;;;;;1.00;0.87;;;;;;;;;;4469085;28;20741;-58
2021/12/26 03:20:13;;;;;;;1.92;0.90;;;;;;;;;;4454120;28;20554;-58
2021/12/26 03:22:26;;;;;;;0.82;0.75;;;;;;;;;;4469025;28;20085;-57
2021/12/26 03:24:38;;;;;;;1.58;1.05;;;;;;;;;;4468266;28;20807;-58
2021/12/26 03:26:49;;;;;;;0.90;0.77;;;;;;;;;;4450690;28;20100;-57
2021/12/26 03:28:59;;;;;;;1.00;0.90;;;;;;;;;;4450183;28;20114;-57
2021/12/26 03:31:10;;;;;;;1.20;0.90;;;;;;;;;;4483941;28;20042;-57
2021/12/26 03:33:22;;;;;;;1.15;0.90;;;;;;;;;;4451327;28;20107;-58
2021/12/26 03:35:35;;;;;;;0.80;0.80;;;;;;;;;;4433552;28;21001;-58
2021/12/26 03:37:46;;;;;;;1.17;0.80;;;;;;;;;;4483079;28;20092;-58
2021/12/26 03:40:16;;;;;;;1.05;0.80;;;;;;;;;;4460587;28;20038;-57
2021/12/26 03:42:27;;;;;;;1.43;0.90;;;;;;;;;;4483333;28;20038;-58
2021/12/26 03:44:38;;;;;;;0.88;0.77;;;;;;;;;;4483858;28;20618;-58
2021/12/26 03:46:48;;;;;;;1.00;0.90;;;;;;;;;;4450933;28;20035;-57
2021/12/26 03:49:04;;;;;;;1.40;1.00;;;;;;;;;;4453094;28;20427;-58
2021/12/26 03:51:14;;;;;;;1.23;0.80;;;;;;;;;;4455391;28;20567;-58
2021/12/26 03:53:25;;;;;;;1.43;0.93;;;;;;;;;;4453682;28;20023;-58
2021/12/26 03:55:36;;;;;;;1.40;1.00;;;;;;;;;;4462141;28;20047;-58
2021/12/26 03:57:46;;;;;;;1.10;0.80;;;;;;;;;;4469036;28;20035;-58
2021/12/26 03:59:57;;;;;;;0.80;0.80;;;;;;;;;;4486669;28;20069;-57
2021/12/26 04:02:07;;;;;;;0.97;0.87;;;;;;;;;;4452901;28;20099;-58
2021/12/26 04:04:18;;;;;;;0.80;0.80;;;;;;;;;;4486516;28;20038;-58
2021/12/26 04:06:29;;;;;;;1.10;1.00;;;;;;;;;;4485552;28;20277;-58
2021/12/26 04:08:40;;;;;;;1.10;1.00;;;;;;;;;;4471221;28;20583;-58
2021/12/26 04:10:51;;;;;;;1.17;0.90;;;;;;;;;;4454271;28;20055;-58
2021/12/26 04:13:02;;;;;;;1.77;1.20;;;;;;;;;;4470763;28;20066;-58
2021/12/26 04:15:14;;;;;;;1.30;1.00;;;;;;;;;;4485958;28;20089;-58
2021/12/26 04:17:25;;;;;;;1.02;0.90;;;;;;;;;;4470664;28;20031;-58
2021/12/26 04:19:35;;;;;;;1.43;1.00;;;;;;;;;;4486342;28;20716;-58
2021/12/26 04:21:46;;;;;;;1.57;1.10;;;;;;;;;;4486281;28;20038;-57
2021/12/26 04:23:56;;;;;;;1.50;1.10;;;;;;;;;;4453472;28;20040;-57
2021/12/26 04:26:07;;;;;;;1.80;1.07;;;;;;;;;;4485934;28;20545;-58
2021/12/26 04:28:19;;;;;;;1.53;1.10;;;;;;;;;;4451879;28;20094;-58
2021/12/26 04:30:31;;;;;;;1.30;1.10;;;;;;;;;;4468764;28;20043;-58
2021/12/26 04:32:42;;;;;;;1.65;1.02;;;;;;;;;;4453683;28;20036;-58
2021/12/26 04:34:52;;;;;;;1.50;1.00;;;;;;;;;;4470227;28;20043;-58
2021/12/26 04:37:03;;;;;;;1.20;1.00;;;;;;;;;;4453029;28;20055;-58
2021/12/26 04:39:14;;;;;;;1.80;1.30;;;;;;;;;;4452960;28;20088;-58
2021/12/26 04:41:24;;;;;;;1.87;1.33;;;;;;;;;;4485563;28;20079;-58
2021/12/26 04:43:53;;;;;;;1.20;1.10;;;;;;;;;;4471774;28;20030;-57
2021/12/26 04:46:11;;;;;;;2.05;1.30;;;;;;;;;;4484969;28;20030;-57
2021/12/26 04:49:00;;;;;;;1.67;1.30;;;;;;;;;;4451858;28;21130;-57
2021/12/26 04:51:11;;;;;;;1.67;1.20;;;;;;;;;;4452607;28;20087;-57
2021/12/26 04:53:22;;;;;;;1.77;1.35;;;;;;;;;;4485893;28;20042;-57
2021/12/26 04:55:32;;;;;;;1.47;1.07;;;;;;;;;;4435758;28;20691;-57
2021/12/26 04:57:43;;;;;;;1.35;1.17;;;;;;;;;;4464048;28;20045;-58
2021/12/26 04:59:54;;;;;;;1.93;1.23;;;;;;;;;;4470087;28;20094;-57
2021/12/26 05:02:08;;;;;;;1.85;1.30;;;;;;;;;;4485167;28;20104;-57
2021/12/26 05:04:19;;;;;;;2.47;1.50;;;;;;;;;;4470935;28;20026;-58
2021/12/26 05:06:31;;;;;;;1.60;1.30;;;;;;;;;;4452201;28;20078;-58
2021/12/26 05:08:42;;;;;;;1.30;1.20;;;;;;;;;;4470946;28;20819;-60
2021/12/26 05:10:52;;;;;;;2.23;1.60;;;;;;;;;;4485751;28;20145;-58
2021/12/26 05:13:03;;;;;;;1.53;1.13;;;;;;;;;;4470061;28;20101;-58
2021/12/26 05:15:16;;;;;;;1.77;1.30;;;;;;;;;;4468797;28;20037;-58
2021/12/26 05:17:27;;;;;;;2.72;1.40;;;;;;;;;;4452224;28;20039;-57
2021/12/26 05:19:37;;;;;;;1.53;1.13;;;;;;;;;;4452484;28;21069;-58
2021/12/26 05:21:48;;;;;;;2.38;1.55;;;;;;;;;;4485013;28;20038;-57
2021/12/26 05:23:59;;;;;;;2.20;1.50;;;;;;;;;;4470945;28;20498;-58
2021/12/26 05:26:09;;;;;;;1.60;1.33;;;;;;;;;;4484902;28;20045;-58
2021/12/26 05:28:19;;;;;;;2.13;1.40;;;;;;;;;;4484888;28;20065;-57
2021/12/26 05:30:32;;;;;;;2.53;1.60;;;;;;;;;;4452236;28;20031;-57
2021/12/26 05:33:14;;;;;;;2.30;1.50;;;;;;;;;;4458591;28;20582;-57
2021/12/26 05:35:27;;;;;;;1.95;1.27;;;;;;;;;;4484934;28;20041;-57
2021/12/26 05:37:38;;;;;;;1.95;1.33;;;;;;;;;;4451956;28;20038;-57
2021/12/26 05:39:49;;;;;;;1.98;1.42;;;;;;;;;;4468080;28;20043;-57
2021/12/26 05:41:59;;;;;;;2.03;1.23;;;;;;;;;;4451515;28;20035;-57
2021/12/26 05:44:15;;;;;;;1.42;1.30;;;;;;;;;;4484972;28;20037;-57
2021/12/26 05:46:25;;;;;;;2.23;1.60;;;;;;;;;;4469464;28;20041;-57
2021/12/26 05:48:36;;;;;;;1.40;1.30;;;;;;;;;;4452615;28;20907;-57
2021/12/26 05:50:50;;;;;;;2.70;1.38;;;;;;;;;;4451983;28;20158;-57
2021/12/26 05:53:27;;;;;;;1.58;1.48;;;;;;;;;;4431829;28;20068;-57
2021/12/26 05:55:37;;;;;;;2.07;1.67;;;;;;;;;;4486513;28;20129;-57
2021/12/26 05:57:48;;;;;;;1.60;1.30;;;;;;;;;;4484359;28;20042;-56
2021/12/26 05:59:59;;;;;;;1.65;1.48;;;;;;;;;;4451744;28;20035;-55
2021/12/26 06:02:10;;;;;;;2.47;1.60;;;;;;;;;;4452106;28;20477;-56
2021/12/26 06:04:24;;;;;;;1.88;1.60;;;;;;;;;;4476935;28;20030;-55
2021/12/26 06:06:34;;;;;;;;;;;;;;;;;;4452476;28;20627;-57
2021/12/26 06:08:45;;;;;;;2.30;1.60;;;;;;;;;;4451496;28;20429;-57
2021/12/26 06:10:56;;;;;;;2.25;1.52;;;;;;;;;;4452383;28;20023;-57
2021/12/26 06:13:06;;;;;;;1.83;1.60;;;;;;;;;;4451435;28;20081;-57
2021/12/26 06:15:17;;;;;;;2.03;1.67;;;;;;;;;;4484246;28;20046;-57
2021/12/26 06:17:28;;;;;;;2.47;1.60;;;;;;;;;;4468877;28;20980;-57
2021/12/26 06:19:57;;;;;;;1.67;1.45;;;;;;;;;;4469107;28;20086;-57
2021/12/26 06:22:17;;;;;;;2.60;1.70;;;;;;;;;;4451566;28;20551;-57
2021/12/26 06:25:06;;;;;;;2.45;1.60;;;;;;;;;;4417537;28;21444;-58
2021/12/26 06:27:30;;;;;;;2.00;1.70;;;;;;;;;;4416175;28;20155;-57
2021/12/26 06:29:59;;;;;;;2.45;1.40;;;;;;;;;;4432393;28;20054;-57
2021/12/26 06:32:29;;;;;;;2.03;1.50;;;;;;;;;;4469258;28;20105;-57
2021/12/26 06:35:08;;;;;;;2.78;1.90;;;;;;;;;;4468778;28;20255;-57
2021/12/26 06:37:41;;;;;;;1.77;1.40;;;;;;;;;;4466513;28;20054;-58
2021/12/26 06:40:11;;;;;;;2.88;1.70;;;;;;;;;;4469307;28;20523;-59
2021/12/26 06:42:43;;;;;;;2.15;1.65;;;;;;;;;;4467375;28;21209;-58
2021/12/26 06:45:15;;;;;;;1.98;1.70;;;;;;;;;;4455087;28;20527;-58
2021/12/26 06:47:50;;;;;;;2.45;1.58;;;;;;;;;;4464767;28;20040;-58
2021/12/26 06:50:00;;;;;;;2.40;1.90;;;;;;;;;;4481565;28;20030;-58
2021/12/26 06:52:11;;;;;;;2.30;1.67;;;;;;;;;;4451278;28;20028;-58
2021/12/26 06:54:23;;;;;;;2.20;1.75;;;;;;;;;;4468401;28;20234;-57
2021/12/26 06:56:33;;;;;;;3.05;1.85;;;;;;;;;;4451915;28;20615;-58
2021/12/26 06:58:46;;;;;;;2.42;1.90;;;;;;;;;;4467250;28;20631;-57
2021/12/26 07:00:56;;;;;;;2.00;1.73;;;;;;;;;;4449686;28;20156;-57
2021/12/26 07:03:07;;;;;;;2.83;2.00;;;;;;;;;;4468311;28;20070;-57
2021/12/26 07:05:18;;;;;;;2.65;1.90;;;;;;;;;;4450498;28;20062;-57
2021/12/26 07:07:49;;;;;;;2.15;1.73;;;;;;;;;;4467930;28;20050;-57
2021/12/26 07:10:00;;;;;;;2.08;1.73;;;;;;;;;;4451373;28;20484;-58
2021/12/26 07:12:13;;;;;;;2.63;2.00;;;;;;;;;;4469987;28;20094;-59
2021/12/26 07:14:34;;;;;;;2.25;1.83;;;;;;;;;;4450205;28;20039;-57
2021/12/26 07:16:45;;;;;;;2.53;1.80;;;;;;;;;;4465822;28;20041;-57
2021/12/26 07:18:55;;;;;;;2.20;1.90;;;;;;;;;;4450600;28;20035;-57
2021/12/26 07:21:13;;;;;;;2.85;2.05;;;;;;;;;;4450536;28;21676;-57
2021/12/26 07:23:31;;;;;;;1.98;1.60;;;;;;;;;;4448450;28;20617;-58
2021/12/26 07:25:47;;;;;;;2.42;1.70;;;;;;;;;;4450513;28;20032;-57
2021/12/26 07:28:01;;;;;;;2.22;1.80;;;;;;;;;;4483405;28;20666;-57
2021/12/26 07:30:32;;;;;;;2.30;1.80;;;;;;;;;;4467127;28;20047;-57
2021/12/26 07:32:43;;;;;;;2.00;1.70;;;;;;;;;;4450748;28;20046;-57
2021/12/26 07:34:53;;;;;;;2.00;1.63;;;;;;;;;;4448668;28;20038;-58
2021/12/26 07:37:04;;;;;;;2.13;1.77;;;;;;;;;;4434773;28;20070;-58
2021/12/26 07:39:20;;;;;;;2.38;1.75;;;;;;;;;;4481971;28;20062;-58
2021/12/26 07:41:30;;;;;;;2.20;1.80;;;;;;;;;;4481686;28;20031;-58
2021/12/26 07:43:41;;;;;;;2.20;2.00;;;;;;;;;;4482157;28;20034;-58
2021/12/26 07:46:11;;;;;;;2.75;1.90;;;;;;;;;;4468116;28;20047;-58
2021/12/26 07:48:22;;;;;;;2.45;1.83;;;;;;;;;;4450957;28;20513;-58
2021/12/26 07:50:32;;;;;;;2.73;2.10;;;;;;;;;;4481584;28;20025;-58
2021/12/26 07:53:07;;;;;;;2.72;1.90;;;;;;;;;;4477520;28;20574;-58
2021/12/26 07:55:37;;;;;;;3.08;2.05;;;;;;;;;;4456985;28;20090;-58
2021/12/26 07:58:06;;;;;;;2.78;1.90;;;;;;;;;;4466913;28;20047;-59
2021/12/26 08:00:35;;;;;;;2.47;1.95;;;;;;;;;;4480223;28;20106;-59
2021/12/26 08:02:57;;;;;;;2.55;2.00;;;;;;;;;;4467019;28;20097;-59
2021/12/26 08:05:26;;;;;;;2.88;2.10;;;;;;;;;;4468340;28;21231;-59
2021/12/26 08:07:53;;;;;;;2.50;1.90;;;;;;;;;;4449246;28;20035;-58
2021/12/26 08:10:04;;;;;;;2.97;2.07;;;;;;;;;;4449517;28;20872;-58
2021/12/26 08:12:15;;;;;;;2.95;2.03;;;;;;;;;;4459000;28;20035;-59
2021/12/26 08:14:25;;;;;;;2.77;2.10;;;;;;;;;;4465037;28;20042;-59
2021/12/26 08:16:36;;;;;;;2.13;1.80;;;;;;;;;;4449273;28;20135;-58
2021/12/26 08:18:46;;;;;;;2.90;2.50;;;;;;;;;;4466451;28;20182;-59
2021/12/26 08:20:56;;;;;;;5.73;4.00;;;;;;;;;;4466833;28;20041;-59
2021/12/26 08:23:07;;;;;;;3.10;2.30;;;;;;;;;;4466403;28;20057;-59
2021/12/26 08:25:17;;;;;;;3.27;2.63;;;;;;;;;;4466903;28;20031;-59
2021/12/26 08:27:28;;;;;;;2.83;2.50;;;;;;;;;;4464854;28;20039;-59
2021/12/26 08:29:38;;;;;;;2.83;2.30;;;;;;;;;;4466332;28;20031;-59
2021/12/26 08:31:53;;;;;;;3.07;2.30;;;;;;;;;;4466647;28;20054;-58
2021/12/26 08:34:04;;;;;;;2.80;2.20;;;;;;;;;;4465325;28;20649;-58
2021/12/26 08:36:34;;;;;;;2.03;1.70;;;;;;;;;;4468730;28;20157;-59
2021/12/26 08:38:45;;;;;;;2.72;2.10;;;;;;;;;;4469816;28;20050;-58
2021/12/26 08:40:56;;;;;;;2.80;1.93;;;;;;;;;;4468603;28;20045;-59
2021/12/26 08:43:07;;;;;;;2.92;1.95;;;;;;;;;;4454878;28;20561;-58
2021/12/26 08:45:17;;;;;;;2.37;2.00;;;;;;;;;;4470007;28;20046;-59
2021/12/26 08:47:28;;;;;;;2.80;2.07;;;;;;;;;;4469856;28;20488;-59
2021/12/26 08:49:39;;;;;;;2.50;1.87;;;;;;;;;;4483778;28;20077;-58
2021/12/26 08:51:50;;;;;;;2.78;2.13;;;;;;;;;;4484472;28;20035;-58
2021/12/26 08:54:02;;;;;;;3.13;2.03;;;;;;;;;;4470335;28;20042;-58
2021/12/26 08:56:13;;;;;;;2.58;1.88;;;;;;;;;;4470941;28;20081;-58
2021/12/26 08:58:23;;;;;;;2.47;1.93;;;;;;;;;;4469904;28;20035;-58
2021/12/26 09:00:35;;;;;;;2.60;2.00;;;;;;;;;;4469975;28;20140;-58
2021/12/26 09:02:46;;;;;;;2.83;2.10;;;;;;;;;;4484278;28;20574;-59
2021/12/26 09:04:56;;;;;;;2.70;2.13;;;;;;;;;;4469997;28;20039;-58
2021/12/26 09:07:08;;;;;;;3.07;2.27;;;;;;;;;;4451953;28;20475;-59
2021/12/26 09:09:19;;;;;;;3.35;2.20;;;;;;;;;;4468968;28;20523;-58
2021/12/26 09:11:29;;;;;;;2.13;1.70;;;;;;;;;;4484505;28;20034;-58
2021/12/26 09:13:40;;;;;;;3.17;2.17;;;;;;;;;;4469143;28;20038;-57
2021/12/26 09:15:50;;;;;;;2.57;2.03;;;;;;;;;;4468794;28;20820;-57
2021/12/26 09:18:01;;;;;;;2.50;2.13;;;;;;;;;;4469078;28;20060;-58
2021/12/26 09:20:12;;;;;;;3.17;2.37;;;;;;;;;;4434775;28;20053;-59
2021/12/26 09:22:22;;;;;;;2.53;2.10;;;;;;;;;;4450019;28;20031;-58
2021/12/26 09:24:33;;;;;;;3.57;1.83;;;;;;;;;;4469498;28;20037;-58
2021/12/26 09:26:43;;;;;;;3.78;2.20;;;;;;;;;;4469837;28;20034;-59
2021/12/26 09:28:54;;;;;;;3.90;2.10;;;;;;;;;;4483997;28;20030;-59
2021/12/26 09:31:05;;;;;;;2.83;2.00;;;;;;;;;;4469490;28;20480;-59
2021/12/26 09:33:19;;;;;;;3.60;2.20;;;;;;;;;;4450739;28;20031;-58
2021/12/26 09:35:31;;;;;;;3.05;2.25;;;;;;;;;;4450324;28;20039;-58
2021/12/26 09:37:43;;;;;;;3.55;2.50;;;;;;;;;;4468152;28;20038;-58
2021/12/26 09:39:54;;;;;;;3.25;2.20;;;;;;;;;;4468278;28;20033;-58
2021/12/26 09:42:05;;;;;;;3.23;2.20;;;;;;;;;;4468116;28;20096;-58
2021/12/26 09:44:16;;;;;;;3.08;2.20;;;;;;;;;;4469154;28;20853;-58
2021/12/26 09:46:31;;;;;;;2.72;2.20;;;;;;;;;;4449334;28;20154;-58
2021/12/26 09:48:41;;;;;;;3.85;2.30;;;;;;;;;;4467619;28;20064;-58
2021/12/26 09:50:52;;;;;;;3.30;2.27;;;;;;;;;;4467859;28;20042;-59
2021/12/26 09:53:02;;;;;;;3.10;2.20;;;;;;;;;;4435083;28;20035;-58
2021/12/26 09:55:14;;;;;;;3.23;2.40;;;;;;;;;;4483166;28;20502;-58
2021/12/26 09:57:25;;;;;;;3.30;2.13;;;;;;;;;;4451670;28;20078;-59
2021/12/26 09:59:35;;;;;;;2.87;2.10;;;;;;;;;;4468850;28;20430;-58
2021/12/26 10:01:54;;;;;;;2.43;2.00;;;;;;;;;;4468809;28;22288;-59
2021/12/26 10:04:29;;;;;;;3.08;2.33;;;;;;;;;;4467235;28;20801;-58
2021/12/26 10:06:39;;;;;;;3.90;2.05;;;;;;;;;;4450232;28;20039;-58
2021/12/26 10:09:01;;;;;;;3.13;2.40;;;;;;;;;;4468266;28;20043;-58
2021/12/26 10:11:14;;;;;;;2.33;1.90;;;;;;;;;;4467856;28;20090;-58
2021/12/26 10:13:47;;;;;;;3.13;2.20;;;;;;;;;;4466310;28;20038;-57
2021/12/26 10:16:02;;;;;;;2.80;2.00;;;;;;;;;;4468197;28;20050;-58
2021/12/26 10:18:29;;;;;;;3.38;2.30;;;;;;;;;;4482754;28;20617;-59
2021/12/26 10:20:40;;;;;;;3.03;2.30;;;;;;;;;;4467641;28;20076;-58
2021/12/26 10:22:50;;;;;;;3.63;2.50;;;;;;;;;;4468055;28;20034;-58
2021/12/26 10:25:09;;;;;;;2.40;2.00;;;;;;;;;;4449227;28;20043;-58
2021/12/26 10:27:30;;;;;;;2.78;2.17;;;;;;;;;;4448621;28;20083;-58
2021/12/26 10:29:42;;;;;;;2.83;2.40;;;;;;;;;;4467631;28;20038;-57
2021/12/26 10:32:06;;;;;;;3.00;2.30;;;;;;;;;;4469075;28;20023;-58
2021/12/26 10:34:29;;;;;;;2.75;2.22;;;;;;;;;;4468577;28;20587;-58
2021/12/26 10:36:44;;;;;;;3.13;2.33;;;;;;;;;;4482909;28;20141;-58
2021/12/26 10:39:14;;;;;;;3.42;2.30;;;;;;;;;;4484259;28;20574;-59
2021/12/26 10:41:25;;;;;;;2.30;2.00;;;;;;;;;;4483644;28;20143;-58
2021/12/26 10:43:45;;;;;;;3.00;2.30;;;;;;;;;;4468277;28;20045;-58
2021/12/26 10:46:13;;;;;;;2.85;2.33;;;;;;;;;;4467810;28;20039;-58
2021/12/26 10:48:24;;;;;;;4.32;2.60;;;;;;;;;;4483221;28;20345;-58
2021/12/26 10:50:38;;;;;;;3.50;2.47;;;;;;;;;;4449491;28;20035;-58
2021/12/26 10:52:52;;;;;;;2.80;2.10;;;;;;;;;;4468003;28;20039;-59
2021/12/26 10:55:06;;;;;;;3.03;2.30;;;;;;;;;;4468604;28;20635;-58
2021/12/26 10:57:44;;;;;;;3.45;2.55;;;;;;;;;;4467545;28;20134;-58
2021/12/26 11:00:07;;;;;;;3.00;2.30;;;;;;;;;;4465475;28;20109;-58
2021/12/26 11:02:23;;;;;;;3.45;2.58;;;;;;;;;;4469036;28;20081;-58
2021/12/26 11:04:35;;;;;;;2.60;2.20;;;;;;;;;;4468281;28;20042;-58
2021/12/26 11:07:08;;;;;;;3.80;2.80;;;;;;;;;;4467869;28;20046;-58
2021/12/26 11:09:19;;;;;;;3.42;2.33;;;;;;;;;;4468150;28;20665;-58
2021/12/26 11:11:30;;;;;;;3.40;2.33;;;;;;;;;;4467438;28;20043;-58
2021/12/26 11:13:40;;;;;;;3.28;2.20;;;;;;;;;;4469199;28;20646;-58
2021/12/26 11:16:04;;;;;;;3.27;2.40;;;;;;;;;;4450420;28;20089;-58
2021/12/26 11:18:17;;;;;;;3.17;2.40;;;;;;;;;;4450758;28;20106;-58
2021/12/26 11:20:38;;;;;;;3.20;2.40;;;;;;;;;;4468456;28;20042;-58
2021/12/26 11:22:49;;;;;;;3.20;2.38;;;;;;;;;;4468321;28;20125;-58
2021/12/26 11:24:59;;;;;;;3.53;2.77;;;;;;;;;;4468400;28;20034;-58
2021/12/26 11:27:10;;;;;;;3.17;2.20;;;;;;;;;;4468116;28;20475;-58
2021/12/26 11:29:20;;;;;;;3.20;2.33;;;;;;;;;;4466683;28;20045;-57
2021/12/26 11:31:31;;;;;;;3.43;2.40;;;;;;;;;;4468242;28;20030;-57
2021/12/26 11:33:42;;;;;;;5.07;2.70;;;;;;;;;;4482602;28;25566;-57
2021/12/26 11:35:53;;;;;;;3.33;2.63;;;;;;;;;;4468182;28;20066;-57
2021/12/26 11:38:04;;;;;;;4.28;2.75;;;;;;;;;;4483368;28;20507;-57
2021/12/26 11:40:34;;;;;;;3.72;2.53;;;;;;;;;;4466999;28;20728;-58
2021/12/26 11:43:37;;;;;;;4.22;2.67;;;;;;;;;;4480544;28;20046;-57
2021/12/26 11:46:21;;;;;;;2.78;2.20;;;;;;;;;;4477205;28;20165;-57
2021/12/26 11:49:07;;;;;;;3.17;2.25;;;;;;;;;;4464607;28;20050;-58
2021/12/26 11:52:19;;;;;;;3.40;2.40;;;;;;;;;;4468019;28;20042;-58
2021/12/26 11:54:50;;;;;;;4.07;2.78;;;;;;;;;;4482740;28;20465;-58
2021/12/26 11:57:18;;;;;;;4.10;2.50;;;;;;;;;;4483395;28;20126;-59
2021/12/26 11:59:57;;;;;;;3.03;2.28;;;;;;;;;;4449965;28;20031;-58
2021/12/26 12:02:08;;;;;;;3.60;2.60;;;;;;;;;;4482300;28;20589;-60
2021/12/26 12:04:21;;;;;;;3.20;2.37;;;;;;;;;;4466883;28;20043;-59
2021/12/26 12:06:31;;;;;;;3.20;2.53;;;;;;;;;;4480563;28;20198;-59
2021/12/26 12:08:42;;;;;;;4.07;2.77;;;;;;;;;;4450105;28;20766;-58
2021/12/26 12:10:52;;;;;;;3.90;2.70;;;;;;;;;;4471858;28;20559;-59
2021/12/26 12:13:05;;;;;;;4.10;2.70;;;;;;;;;;4471498;28;20050;-58
2021/12/26 12:15:15;;;;;;;3.55;2.67;;;;;;;;;;4453529;28;20102;-58
2021/12/26 12:17:31;;;;;;;3.00;2.27;;;;;;;;;;4470707;28;20134;-58
2021/12/26 12:20:08;;;;;;;3.65;2.70;;;;;;;;;;4470228;28;20038;-58
2021/12/26 12:22:18;;;;;;;3.08;2.33;;;;;;;;;;4470360;28;20050;-58
2021/12/26 12:24:29;;;;;;;3.63;2.70;;;;;;;;;;4485283;28;20471;-57
2021/12/26 12:26:53;;;;;;;3.67;2.50;;;;;;;;;;4469901;28;20567;-57
2021/12/26 12:29:03;;;;;;;3.25;2.50;;;;;;;;;;4470109;28;20114;-57
2021/12/26 12:31:16;;;;;;;3.53;2.80;;;;;;;;;;4485479;28;20918;-57
2021/12/26 12:33:32;;;;;;;3.47;2.75;;;;;;;;;;4471254;28;20621;-57
2021/12/26 12:35:54;;;;;;;4.22;2.88;;;;;;;;;;4453163;28;20051;-57
2021/12/26 12:38:28;;;;;;;3.47;2.65;;;;;;;;;;4470655;28;21232;-57
2021/12/26 12:40:38;;;;;;;2.90;2.63;;;;;;;;;;4485333;28;20042;-57
2021/12/26 12:43:08;;;;;;;3.60;2.67;;;;;;;;;;4469843;28;20483;-57
2021/12/26 12:45:18;;;;;;;4.22;2.80;;;;;;;;;;4455549;28;20558;-57
2021/12/26 12:47:29;;;;;;;3.67;2.60;;;;;;;;;;4485336;28;20038;-57
2021/12/26 12:49:41;;;;;;;;;;;;;;;;;;4470530;28;20054;-57
2021/12/26 12:51:51;;;;;;;3.30;2.57;;;;;;;;;;4471157;28;19965;-57
2021/12/26 12:54:25;;;;;;;3.90;2.77;;;;;;;;;;4471048;28;20046;-57
2021/12/26 12:56:40;;;;;;;4.05;2.90;;;;;;;;;;4481410;28;20672;-58
2021/12/26 12:58:51;;;;;;;4.15;3.03;;;;;;;;;;4451808;28;20028;-58
2021/12/26 13:01:05;;;;;;;4.33;3.30;;;;;;;;;;4468183;28;20031;-57
2021/12/26 13:03:17;;;;;;;4.68;3.40;;;;;;;;;;4469999;28;20046;-57
2021/12/26 13:05:35;;;;;;;4.32;3.15;;;;;;;;;;4483724;28;20034;-57
2021/12/26 13:07:46;;;;;;;3.30;2.97;;;;;;;;;;4484594;28;20037;-57
2021/12/26 13:09:59;;;;;;;4.43;3.37;;;;;;;;;;4469754;28;20502;-57
2021/12/26 13:12:13;;;;;;;4.68;3.30;;;;;;;;;;4454092;28;20044;-57
2021/12/26 13:14:38;;;;;;;4.47;3.47;;;;;;;;;;4468809;28;20039;-57
2021/12/26 13:16:49;;;;;;;4.80;3.42;;;;;;;;;;4469417;28;20042;-57
2021/12/26 13:19:07;;;;;;;4.73;3.47;;;;;;;;;;4469766;28;20558;-57
2021/12/26 13:21:19;;;;;;;4.32;3.13;;;;;;;;;;4483634;28;20154;-57
2021/12/26 13:23:31;;;;;;;4.57;3.33;;;;;;;;;;4469659;28;20630;-54
2021/12/26 13:25:45;;;;;;;4.25;3.25;;;;;;;;;;4469730;28;20570;-57
2021/12/26 13:27:59;;;;;;;4.10;3.50;;;;;;;;;;4468716;28;20115;-57
2021/12/26 13:30:10;;;;;;;4.95;3.50;;;;;;;;;;4450058;28;20035;-57
2021/12/26 13:32:21;;;;;;;4.88;3.65;;;;;;;;;;4449295;28;20043;-57
2021/12/26 13:34:31;;;;;;;6.07;4.10;;;;;;;;;;4466716;28;20512;-58
2021/12/26 13:36:42;;;;;;;4.67;3.33;;;;;;;;;;4469460;28;21701;-59
2021/12/26 13:38:54;;;;;;;4.70;3.50;;;;;;;;;;4469413;28;20034;-58
2021/12/26 13:41:07;;;;;;;5.32;3.80;;;;;;;;;;4450418;28;20034;-58